Time;durP1;ratioP1;P1;durP2;ratioP2;P2;SDS_P1;SDS_P2;PMS_P1;PMS_P2;Temp;Humidity;BMP_temperature;BMP_pressure;BME280_temperature;BME280_humidity;BME280_pressure;Samples;Min_cycle;Max_cycle;Signal;HPM_P1;HPM_P2
2022/11/23 00:00:03;;;;;;;6.43;4.23;;;7.90;99.90;;;;;;5033598;28;20195;-68
2022/11/23 00:02:28;;;;;;;9.90;5.07;;;7.90;99.90;;;;;;5033668;28;20316;-69
2022/11/23 00:04:54;;;;;;;5.83;4.70;;;7.90;99.90;;;;;;5015983;28;20238;-68
2022/11/23 00:07:20;;;;;;;7.10;5.03;;;7.90;99.90;;;;;;5015694;28;20179;-68
2022/11/23 00:09:46;;;;;;;6.60;4.67;;;7.90;99.90;;;;;;5033495;28;20664;-69
2022/11/23 00:12:11;;;;;;;6.47;4.47;;;8.00;99.90;;;;;;5033590;28;20193;-69
2022/11/23 00:14:37;;;;;;;7.10;4.77;;;8.00;99.90;;;;;;5033792;28;20163;-69
2022/11/23 00:17:04;;;;;;;8.03;4.40;;;8.00;99.90;;;;;;5033330;28;20214;-68
2022/11/23 00:19:30;;;;;;;8.17;4.23;;;8.00;99.90;;;;;;5033573;28;20715;-68
2022/11/23 00:21:55;;;;;;;10.43;4.60;;;8.00;99.90;;;;;;5033460;28;20186;-68
2022/11/23 00:24:21;;;;;;;7.93;4.60;;;8.00;99.90;;;;;;5033157;28;20705;-68
2022/11/23 00:26:47;;;;;;;9.67;5.03;;;8.00;99.90;;;;;;5033344;28;20266;-68
2022/11/23 00:29:12;;;;;;;7.10;4.20;;;8.00;99.90;;;;;;5015503;28;20252;-69
2022/11/23 00:31:38;;;;;;;9.23;5.13;;;8.00;99.90;;;;;;5015621;28;20190;-68
2022/11/23 00:34:04;;;;;;;10.80;4.77;;;8.10;99.90;;;;;;5015720;28;20547;-68
2022/11/23 00:36:30;;;;;;;9.93;4.60;;;8.10;99.90;;;;;;5033665;28;20171;-68
2022/11/23 00:38:56;;;;;;;6.97;4.37;;;8.10;99.90;;;;;;5032819;28;20329;-68
2022/11/23 00:41:24;;;;;;;6.90;4.33;;;8.10;99.90;;;;;;5033856;28;20179;-69
2022/11/23 00:43:50;;;;;;;6.60;4.40;;;8.10;99.90;;;;;;5033288;28;20172;-69
2022/11/23 00:46:22;;;;;;;7.17;4.73;;;8.20;99.90;;;;;;5033635;28;20210;-69
2022/11/23 00:48:49;;;;;;;7.57;4.77;;;8.10;99.90;;;;;;5033360;28;20694;-69
2022/11/23 00:51:21;;;;;;;5.40;4.30;;;8.10;99.90;;;;;;5015664;28;20182;-68
2022/11/23 00:53:48;;;;;;;8.20;4.40;;;8.10;99.90;;;;;;5033094;28;20182;-68
2022/11/23 00:56:14;;;;;;;6.97;4.57;;;8.10;99.90;;;;;;5033058;28;20199;-68
2022/11/23 00:58:39;;;;;;;8.23;4.40;;;8.20;99.90;;;;;;5033454;28;20233;-68
2022/11/23 01:01:11;;;;;;;5.93;4.50;;;8.20;99.90;;;;;;5015575;28;20218;-68
2022/11/23 01:03:40;;;;;;;6.50;4.20;;;8.20;99.90;;;;;;5015402;28;20215;-69
2022/11/23 01:06:09;;;;;;;6.23;4.33;;;8.20;99.90;;;;;;5032837;28;20218;-68
2022/11/23 01:08:35;;;;;;;5.70;4.83;;;8.20;99.90;;;;;;5013813;28;20295;-68
2022/11/23 01:11:03;;;;;;;7.03;4.60;;;8.20;99.90;;;;;;5016867;28;20202;-68
2022/11/23 01:13:30;;;;;;;10.07;4.40;;;8.20;99.90;;;;;;5016763;28;20189;-68
2022/11/23 01:15:56;;;;;;;7.20;4.50;;;8.20;99.90;;;;;;5011923;28;20191;-68
2022/11/23 01:18:23;;;;;;;6.27;4.20;;;8.20;99.90;;;;;;5036833;28;20203;-68
2022/11/23 01:20:49;;;;;;;7.40;4.63;;;8.20;99.90;;;;;;5036805;28;20175;-68
2022/11/23 01:23:15;;;;;;;6.70;4.77;;;8.20;99.90;;;;;;5035158;28;20187;-68
2022/11/23 01:25:41;;;;;;;8.00;4.80;;;8.20;99.90;;;;;;5036587;28;20199;-69
2022/11/23 01:28:06;;;;;;;6.90;4.70;;;8.20;99.90;;;;;;5036857;28;20163;-68
2022/11/23 01:30:33;;;;;;;6.40;4.47;;;8.10;99.90;;;;;;5036793;28;20171;-69
2022/11/23 01:32:59;;;;;;;9.67;4.97;;;8.10;99.90;;;;;;5035437;28;20728;-69
2022/11/23 01:35:25;;;;;;;6.00;4.57;;;8.10;99.90;;;;;;5036694;28;20178;-69
2022/11/23 01:37:51;;;;;;;6.70;4.50;;;8.10;99.90;;;;;;5038177;28;20172;-69
2022/11/23 01:40:16;;;;;;;8.23;4.90;;;8.10;99.90;;;;;;5056263;28;20230;-69
2022/11/23 01:42:48;;;;;;;6.33;4.27;;;8.10;99.90;;;;;;5056423;28;20197;-69
2022/11/23 01:45:32;;;;;;;5.73;4.50;;;8.10;99.90;;;;;;5054917;28;20292;-69
2022/11/23 01:47:58;;;;;;;5.27;4.33;;;8.10;99.90;;;;;;5055966;28;20166;-68
2022/11/23 01:50:24;;;;;;;5.83;4.20;;;8.10;99.90;;;;;;5054803;28;20259;-68
2022/11/23 01:52:50;;;;;;;7.70;4.47;;;8.10;99.90;;;;;;5056095;28;20167;-68
2022/11/23 01:55:16;;;;;;;7.20;4.43;;;8.10;99.90;;;;;;5054718;28;20705;-68
2022/11/23 01:57:43;;;;;;;14.30;5.30;;;8.10;99.90;;;;;;5055889;28;20232;-68
2022/11/23 02:00:12;;;;;;;5.00;4.40;;;8.20;99.90;;;;;;5055905;28;20225;-68
2022/11/23 02:02:44;;;;;;;7.03;4.97;;;8.10;99.90;;;;;;5056617;28;20175;-68
2022/11/23 02:05:11;;;;;;;8.30;4.43;;;8.10;99.90;;;;;;5056689;28;20539;-68
2022/11/23 02:07:38;;;;;;;6.83;4.37;;;8.20;99.90;;;;;;5054794;28;20282;-68
2022/11/23 02:10:04;;;;;;;5.47;4.30;;;8.20;99.90;;;;;;5041023;28;20259;-69
2022/11/23 02:12:30;;;;;;;9.20;5.23;;;8.20;99.90;;;;;;5042549;28;20217;-69
2022/11/23 02:14:55;;;;;;;7.30;4.73;;;8.30;99.90;;;;;;5037206;28;20668;-69
2022/11/23 02:17:21;;;;;;;9.40;4.97;;;8.30;99.90;;;;;;5015776;28;20184;-68
2022/11/23 02:19:59;;;;;;;4.67;4.23;;;8.30;99.90;;;;;;5015651;28;20203;-68
2022/11/23 02:22:38;;;;;;;6.17;4.10;;;8.30;99.90;;;;;;5019151;28;20168;-68
2022/11/23 02:25:14;;;;;;;12.60;4.97;;;8.30;99.90;;;;;;5017264;28;20329;-69
2022/11/23 02:27:41;;;;;;;10.07;4.47;;;8.30;99.90;;;;;;5016008;28;20163;-69
2022/11/23 02:30:07;;;;;;;6.37;4.23;;;8.30;99.90;;;;;;5015578;28;20669;-68
2022/11/23 02:32:34;;;;;;;6.83;4.30;;;8.30;99.90;;;;;;5015768;28;20357;-68
2022/11/23 02:35:01;;;;;;;7.37;4.30;;;8.30;99.90;;;;;;5015337;28;20230;-68
2022/11/23 02:37:26;;;;;;;6.00;4.50;;;8.30;99.90;;;;;;5015189;28;20179;-68
2022/11/23 02:39:54;;;;;;;10.07;4.60;;;8.30;99.90;;;;;;5033637;28;20203;-68
2022/11/23 02:42:20;;;;;;;5.10;3.83;;;8.40;99.90;;;;;;5034845;28;20694;-68
2022/11/23 02:45:12;;;;;;;7.97;4.43;;;8.40;99.90;;;;;;5017189;28;20211;-68
2022/11/23 02:47:38;;;;;;;6.80;4.30;;;8.40;99.90;;;;;;5035434;28;20164;-68
2022/11/23 02:50:04;;;;;;;11.17;5.00;;;8.40;99.90;;;;;;5035153;28;20226;-68
2022/11/23 02:52:29;;;;;;;4.67;4.33;;;8.40;99.90;;;;;;5017118;28;20225;-68
2022/11/23 02:54:55;;;;;;;6.87;4.07;;;8.40;99.90;;;;;;5035062;28;20210;-68
2022/11/23 02:57:21;;;;;;;6.77;4.10;;;8.40;99.90;;;;;;5034893;28;20175;-68
2022/11/23 02:59:46;;;;;;;7.90;3.77;;;8.40;99.90;;;;;;5034641;28;20203;-68
2022/11/23 03:02:12;;;;;;;10.10;4.20;;;8.50;99.90;;;;;;5034576;28;20183;-68
2022/11/23 03:04:38;;;;;;;5.53;4.33;;;8.40;99.90;;;;;;5034744;28;20179;-69
2022/11/23 03:07:04;;;;;;;4.87;4.30;;;8.40;99.90;;;;;;5034695;28;20613;-68
2022/11/23 03:09:29;;;;;;;6.73;4.40;;;8.40;99.90;;;;;;5034236;28;20225;-68
2022/11/23 03:11:55;;;;;;;8.37;4.57;;;8.40;99.90;;;;;;5034533;28;20643;-68
2022/11/23 03:14:21;;;;;;;7.57;4.10;;;8.40;99.90;;;;;;5034498;28;20206;-68
2022/11/23 03:16:47;;;;;;;5.03;4.20;;;8.40;99.90;;;;;;5034545;28;20230;-68
2022/11/23 03:19:12;;;;;;;4.00;3.70;;;8.40;99.90;;;;;;5034314;28;20221;-68
2022/11/23 03:21:38;;;;;;;8.00;4.57;;;8.40;99.90;;;;;;5034474;28;20179;-69
2022/11/23 03:24:04;;;;;;;5.47;4.40;;;8.30;99.90;;;;;;5034188;28;20179;-68
2022/11/23 03:26:30;;;;;;;9.97;4.30;;;8.30;99.90;;;;;;5034666;28;20659;-68
2022/11/23 03:28:55;;;;;;;6.97;4.10;;;8.20;99.90;;;;;;5034044;28;20195;-68
2022/11/23 03:31:21;;;;;;;6.93;4.70;;;8.20;99.90;;;;;;5033981;28;20175;-68
2022/11/23 03:33:47;;;;;;;8.70;4.60;;;8.20;99.90;;;;;;5034136;28;20609;-68
2022/11/23 03:36:13;;;;;;;8.93;4.33;;;8.10;99.90;;;;;;5034162;28;20266;-68
2022/11/23 03:38:38;;;;;;;6.80;4.13;;;8.10;99.90;;;;;;5033866;28;20214;-68
2022/11/23 03:41:04;;;;;;;6.77;4.00;;;8.10;99.90;;;;;;5033826;28;20172;-68
2022/11/23 03:43:30;;;;;;;7.93;4.27;;;8.10;99.90;;;;;;5033950;28;20222;-68
2022/11/23 03:45:55;;;;;;;5.47;4.30;;;8.00;99.90;;;;;;5033836;28;20626;-68
2022/11/23 03:48:21;;;;;;;10.03;4.67;;;8.00;99.90;;;;;;5033803;28;20171;-69
2022/11/23 03:50:47;;;;;;;6.67;4.50;;;8.00;99.90;;;;;;5016169;28;20270;-68
2022/11/23 03:53:12;;;;;;;5.70;4.60;;;8.00;99.90;;;;;;5033852;28;20640;-68
2022/11/23 03:55:38;;;;;;;7.47;4.30;;;8.00;99.90;;;;;;5033724;28;20645;-68
2022/11/23 03:58:04;;;;;;;7.50;4.63;;;8.00;99.90;;;;;;5033624;28;20186;-68
2022/11/23 04:00:30;;;;;;;6.00;4.23;;;8.00;99.90;;;;;;5034294;28;20175;-68
2022/11/23 04:02:56;;;;;;;5.07;4.33;;;8.00;99.90;;;;;;5033846;28;20186;-68
2022/11/23 04:05:22;;;;;;;6.40;4.57;;;8.00;99.90;;;;;;5034058;28;20210;-69
2022/11/23 04:07:48;;;;;;;5.00;4.07;;;7.90;99.90;;;;;;5033963;28;20175;-68
2022/11/23 04:10:18;;;;;;;7.23;4.37;;;7.90;99.90;;;;;;5033799;28;20211;-68
2022/11/23 04:12:44;;;;;;;4.93;4.23;;;7.90;99.90;;;;;;5033519;28;20176;-68
2022/11/23 04:15:10;;;;;;;8.80;4.33;;;7.90;99.90;;;;;;5033380;28;20171;-69
2022/11/23 04:17:37;;;;;;;6.93;4.53;;;7.90;99.90;;;;;;5033642;28;20175;-68
2022/11/23 04:20:03;;;;;;;5.53;4.43;;;7.90;99.90;;;;;;5033384;28;20199;-68
2022/11/23 04:22:29;;;;;;;6.03;4.10;;;7.90;99.90;;;;;;5033218;28;20187;-68
2022/11/23 04:24:55;;;;;;;7.23;4.30;;;7.90;99.90;;;;;;5033180;28;20210;-69
2022/11/23 04:27:20;;;;;;;4.73;4.23;;;7.90;99.90;;;;;;5033300;28;20179;-69
2022/11/23 04:29:46;;;;;;;5.70;4.10;;;7.90;99.90;;;;;;5015801;28;20718;-68
2022/11/23 04:32:12;;;;;;;5.33;3.97;;;7.90;99.90;;;;;;5015676;28;20271;-68
2022/11/23 04:34:37;;;;;;;6.03;4.60;;;7.90;99.90;;;;;;5033408;28;20647;-68
2022/11/23 04:37:03;;;;;;;4.53;4.10;;;7.80;99.90;;;;;;5033358;28;20180;-68
2022/11/23 04:39:29;;;;;;;5.03;4.60;;;7.80;99.90;;;;;;5032924;28;20206;-69
2022/11/23 04:41:55;;;;;;;6.10;4.30;;;7.80;99.90;;;;;;5034164;28;20198;-68
2022/11/23 04:44:20;;;;;;;4.73;3.80;;;7.80;99.90;;;;;;5037329;28;20205;-69
2022/11/23 04:46:49;;;;;;;7.23;4.20;;;7.80;99.90;;;;;;5037154;28;20234;-69
2022/11/23 04:49:15;;;;;;;4.70;4.30;;;7.80;99.90;;;;;;5037184;28;20183;-68
2022/11/23 04:51:40;;;;;;;8.23;4.33;;;7.80;99.90;;;;;;5037417;28;20176;-68
2022/11/23 04:54:06;;;;;;;5.80;3.57;;;7.80;99.90;;;;;;5036853;28;20194;-68
2022/11/23 04:56:32;;;;;;;6.30;4.17;;;7.70;99.90;;;;;;5036998;28;20250;-68
2022/11/23 04:58:58;;;;;;;4.07;3.77;;;7.70;99.90;;;;;;5037060;28;20285;-68
2022/11/23 05:01:23;;;;;;;4.43;4.10;;;7.70;99.90;;;;;;5037040;28;20175;-69
2022/11/23 05:03:49;;;;;;;4.57;4.00;;;7.70;99.90;;;;;;5037207;28;20179;-68
2022/11/23 05:06:15;;;;;;;5.50;4.07;;;7.70;99.90;;;;;;5036965;28;20203;-69
2022/11/23 05:08:41;;;;;;;7.13;4.03;;;7.70;99.90;;;;;;5036691;28;20241;-69
2022/11/23 05:11:07;;;;;;;5.90;4.20;;;7.70;99.90;;;;;;5036691;28;20175;-68
2022/11/23 05:13:33;;;;;;;4.93;3.93;;;7.60;99.90;;;;;;5019017;28;20179;-68
2022/11/23 05:15:59;;;;;;;4.40;4.00;;;7.60;99.90;;;;;;5036723;28;20199;-69
2022/11/23 05:18:24;;;;;;;9.30;4.50;;;7.60;99.90;;;;;;5036912;28;20202;-69
2022/11/23 05:20:50;;;;;;;6.43;4.53;;;7.60;99.90;;;;;;5036684;28;20191;-68
2022/11/23 05:23:16;;;;;;;6.97;4.40;;;7.60;99.90;;;;;;5018766;28;20262;-69
2022/11/23 05:25:42;;;;;;;6.90;4.43;;;7.60;99.90;;;;;;5018893;28;20217;-69
2022/11/23 05:28:15;;;;;;;8.60;4.60;;;7.60;99.90;;;;;;5036507;28;20181;-70
2022/11/23 05:30:40;;;;;;;8.47;4.43;;;7.60;99.90;;;;;;5036141;28;20163;-70
2022/11/23 05:33:06;;;;;;;14.00;4.67;;;7.60;99.90;;;;;;5036115;28;20178;-70
2022/11/23 05:35:32;;;;;;;4.97;4.20;;;7.50;99.90;;;;;;5036281;28;20198;-70
2022/11/23 05:37:57;;;;;;;6.67;4.30;;;7.60;99.90;;;;;;5017997;28;20282;-70
2022/11/23 05:40:23;;;;;;;6.67;4.30;;;7.60;99.90;;;;;;5035863;28;20203;-69
2022/11/23 05:42:56;;;;;;;6.57;4.30;;;7.60;99.90;;;;;;5018229;28;20183;-70
2022/11/23 05:45:23;;;;;;;8.47;4.77;;;7.60;99.90;;;;;;5036054;28;20199;-70
2022/11/23 05:47:54;;;;;;;7.43;4.43;;;7.60;99.90;;;;;;5035762;28;20175;-70
2022/11/23 05:50:22;;;;;;;7.40;4.57;;;7.60;99.90;;;;;;5035701;28;20187;-69
2022/11/23 05:52:47;;;;;;;12.30;4.57;;;7.60;99.90;;;;;;5035810;28;20175;-70
2022/11/23 05:55:14;;;;;;;7.20;5.17;;;7.60;99.90;;;;;;5035414;28;20179;-69
2022/11/23 05:57:40;;;;;;;11.53;4.57;;;7.70;99.90;;;;;;5018249;28;20241;-69
2022/11/23 06:00:09;;;;;;;5.00;4.10;;;7.70;99.90;;;;;;5036635;28;20199;-69
2022/11/23 06:02:35;;;;;;;10.70;4.70;;;7.70;99.90;;;;;;5035873;28;20171;-68
2022/11/23 06:05:02;;;;;;;6.77;4.53;;;7.70;99.90;;;;;;5036130;28;20210;-69
2022/11/23 06:07:27;;;;;;;6.57;4.07;;;7.70;99.90;;;;;;5035668;28;20175;-69
2022/11/23 06:09:53;;;;;;;5.13;4.27;;;7.80;99.90;;;;;;5014332;28;20582;-69
2022/11/23 06:12:19;;;;;;;6.50;4.17;;;7.80;99.90;;;;;;5015804;28;20172;-69
2022/11/23 06:14:44;;;;;;;9.97;4.63;;;7.90;99.90;;;;;;4998180;28;20645;-69
2022/11/23 06:17:10;;;;;;;7.47;4.50;;;7.90;99.90;;;;;;5015702;28;20214;-68
2022/11/23 06:19:36;;;;;;;6.73;4.30;;;7.90;99.90;;;;;;4998053;28;20195;-68
2022/11/23 06:22:02;;;;;;;7.20;4.27;;;8.00;99.90;;;;;;5015921;28;20258;-69
2022/11/23 06:24:27;;;;;;;7.77;4.33;;;8.00;99.90;;;;;;5015378;28;20176;-69
2022/11/23 06:26:54;;;;;;;9.70;4.63;;;8.00;99.90;;;;;;4998082;28;20207;-69
2022/11/23 06:29:20;;;;;;;7.73;4.63;;;8.00;99.90;;;;;;4997941;28;20611;-69
2022/11/23 06:31:46;;;;;;;5.30;4.17;;;8.00;99.90;;;;;;5015802;28;20206;-69
2022/11/23 06:34:12;;;;;;;11.73;4.70;;;7.90;99.90;;;;;;5015532;28;20172;-69
2022/11/23 06:36:37;;;;;;;11.97;4.90;;;7.90;99.90;;;;;;5015260;28;20247;-69
2022/11/23 06:39:03;;;;;;;4.67;4.10;;;8.00;99.90;;;;;;5026691;28;20286;-69
2022/11/23 06:41:29;;;;;;;5.43;4.20;;;8.00;99.90;;;;;;5035275;28;20682;-69
2022/11/23 06:43:55;;;;;;;4.70;4.30;;;8.00;99.90;;;;;;5035108;28;20175;-69
2022/11/23 06:46:20;;;;;;;6.23;4.23;;;7.90;99.90;;;;;;5034586;28;20577;-69
2022/11/23 06:48:47;;;;;;;11.17;4.47;;;7.90;99.90;;;;;;5034655;28;20219;-69
2022/11/23 06:51:13;;;;;;;10.03;4.10;;;7.90;99.90;;;;;;5016874;28;20187;-69
2022/11/23 06:53:39;;;;;;;5.03;4.27;;;7.90;99.90;;;;;;5034491;28;20188;-69
2022/11/23 06:56:05;;;;;;;6.33;3.70;;;7.90;99.90;;;;;;5016875;28;20179;-69
2022/11/23 06:58:31;;;;;;;6.13;3.87;;;7.90;99.90;;;;;;5034444;28;20565;-68
2022/11/23 07:01:01;;;;;;;5.03;3.90;;;7.90;99.90;;;;;;5034533;28;20179;-69
2022/11/23 07:03:27;;;;;;;9.17;4.27;;;7.90;99.90;;;;;;5016794;28;20211;-69
2022/11/23 07:05:53;;;;;;;7.33;4.40;;;7.90;99.90;;;;;;5033476;28;20229;-69
2022/11/23 07:08:19;;;;;;;6.63;4.20;;;7.90;99.90;;;;;;5013101;28;20215;-69
2022/11/23 07:10:44;;;;;;;5.87;4.10;;;7.90;99.90;;;;;;5014589;28;20719;-69
2022/11/23 07:13:11;;;;;;;4.60;3.60;;;7.90;99.90;;;;;;5014782;28;20659;-69
2022/11/23 07:15:39;;;;;;;5.13;3.80;;;7.90;99.90;;;;;;5004521;28;20199;-69
2022/11/23 07:18:05;;;;;;;5.77;3.87;;;7.90;99.90;;;;;;5034100;28;20163;-69
2022/11/23 07:20:32;;;;;;;9.33;4.90;;;7.90;99.90;;;;;;5032757;28;20274;-68
2022/11/23 07:23:06;;;;;;;8.57;4.10;;;8.00;99.90;;;;;;5033797;28;20172;-69
2022/11/23 07:25:33;;;;;;;6.13;3.97;;;8.00;99.90;;;;;;5034209;28;20189;-69
2022/11/23 07:28:01;;;;;;;4.60;3.80;;;8.00;99.90;;;;;;5034583;28;20175;-69
2022/11/23 07:30:28;;;;;;;5.97;3.83;;;8.00;99.90;;;;;;5033915;28;20195;-69
2022/11/23 07:32:59;;;;;;;6.07;4.00;;;8.00;99.90;;;;;;5033993;28;20178;-69
2022/11/23 07:35:24;;;;;;;7.47;4.73;;;8.00;99.90;;;;;;5033876;28;20629;-69
2022/11/23 07:37:50;;;;;;;5.40;3.97;;;8.00;99.90;;;;;;5035687;28;20179;-69
2022/11/23 07:40:16;;;;;;;8.07;4.47;;;8.00;99.90;;;;;;5053557;28;20190;-69
2022/11/23 07:42:41;;;;;;;8.43;4.00;;;8.00;99.90;;;;;;5054070;28;20228;-69
2022/11/23 07:45:08;;;;;;;8.63;4.20;;;8.00;99.90;;;;;;5053585;28;20198;-69
2022/11/23 07:47:33;;;;;;;4.97;4.10;;;8.00;99.90;;;;;;5053626;28;20202;-69
2022/11/23 07:49:59;;;;;;;4.70;4.10;;;8.00;99.90;;;;;;5053893;28;20214;-69
2022/11/23 07:52:25;;;;;;;7.93;4.40;;;8.00;99.90;;;;;;5053525;28;20185;-69
2022/11/23 07:54:51;;;;;;;8.17;4.10;;;8.10;99.90;;;;;;5053480;28;20180;-69
2022/11/23 07:57:16;;;;;;;10.93;4.30;;;8.20;99.90;;;;;;5053406;28;20193;-69
2022/11/23 07:59:42;;;;;;;7.50;4.10;;;8.20;99.90;;;;;;5052103;28;20198;-69
2022/11/23 08:02:12;;;;;;;7.13;4.27;;;8.10;99.90;;;;;;5052062;28;20170;-69
2022/11/23 08:04:38;;;;;;;9.60;4.40;;;8.20;99.90;;;;;;5053650;28;20601;-69
2022/11/23 08:07:04;;;;;;;7.30;4.23;;;8.20;99.90;;;;;;5053585;28;20574;-69
2022/11/23 08:09:29;;;;;;;11.67;4.33;;;8.20;99.90;;;;;;5052963;28;20667;-69
2022/11/23 08:11:55;;;;;;;9.10;4.00;;;8.20;99.90;;;;;;5053267;28;20167;-69
2022/11/23 08:14:22;;;;;;;5.60;4.17;;;8.20;99.90;;;;;;5053511;28;20643;-69
2022/11/23 08:16:51;;;;;;;12.93;4.57;;;8.20;99.90;;;;;;5052176;28;20202;-69
2022/11/23 08:19:18;;;;;;;10.30;4.03;;;8.20;99.90;;;;;;5053890;28;20198;-69
2022/11/23 08:21:44;;;;;;;8.67;4.40;;;8.20;99.90;;;;;;5052439;28;20224;-69
2022/11/23 08:24:10;;;;;;;5.40;4.03;;;8.20;99.90;;;;;;5053251;28;20178;-70
2022/11/23 08:26:36;;;;;;;7.97;4.40;;;8.30;99.90;;;;;;5052093;28;20237;-70
2022/11/23 08:29:02;;;;;;;7.07;4.47;;;8.30;99.90;;;;;;5053318;28;20218;-70
2022/11/23 08:31:28;;;;;;;11.57;4.17;;;8.30;99.90;;;;;;5053340;28;20162;-70
2022/11/23 08:33:54;;;;;;;6.83;3.90;;;8.30;99.90;;;;;;5053047;28;20232;-70
2022/11/23 08:36:19;;;;;;;6.50;3.87;;;8.40;99.90;;;;;;5053170;28;20253;-70
2022/11/23 08:38:45;;;;;;;10.97;4.40;;;8.40;99.90;;;;;;5051556;28;20320;-69
2022/11/23 08:41:11;;;;;;;7.90;4.23;;;8.50;99.90;;;;;;5053018;28;20222;-70
2022/11/23 08:43:37;;;;;;;8.27;4.10;;;8.50;99.90;;;;;;5052974;28;20182;-70
2022/11/23 08:46:03;;;;;;;5.57;3.90;;;8.50;99.90;;;;;;5052932;28;20198;-70
2022/11/23 08:48:29;;;;;;;8.00;4.33;;;8.60;99.90;;;;;;5052879;28;20190;-70
2022/11/23 08:50:59;;;;;;;8.03;4.30;;;8.60;99.90;;;;;;5052954;28;20174;-70
2022/11/23 08:53:25;;;;;;;5.83;4.37;;;8.60;99.90;;;;;;5052712;28;20515;-70
2022/11/23 08:55:51;;;;;;;5.37;4.07;;;8.60;99.90;;;;;;5053174;28;20174;-70
2022/11/23 08:58:16;;;;;;;9.73;4.70;;;8.70;99.90;;;;;;5052708;28;20327;-70
2022/11/23 09:00:42;;;;;;;7.17;3.73;;;8.70;99.90;;;;;;5051653;28;20182;-70
2022/11/23 09:03:08;;;;;;;9.97;4.73;;;8.70;99.90;;;;;;5052770;28;20651;-70
2022/11/23 09:05:36;;;;;;;5.03;3.93;;;8.80;99.90;;;;;;5052613;28;20202;-70
2022/11/23 09:08:02;;;;;;;10.13;4.30;;;8.80;99.90;;;;;;5052628;28;20190;-70
2022/11/23 09:10:28;;;;;;;6.30;4.07;;;8.80;99.90;;;;;;5052913;28;20549;-70
2022/11/23 09:12:54;;;;;;;5.20;4.13;;;8.90;99.90;;;;;;5053261;28;20195;-70
2022/11/23 09:15:20;;;;;;;7.00;4.10;;;8.90;99.90;;;;;;5049527;28;20187;-70
2022/11/23 09:17:46;;;;;;;9.93;4.13;;;8.90;99.90;;;;;;5033109;28;20174;-69
2022/11/23 09:20:12;;;;;;;7.10;4.40;;;9.00;99.90;;;;;;5032679;28;20199;-69
2022/11/23 09:22:38;;;;;;;14.97;4.60;;;9.00;99.90;;;;;;5032666;28;20171;-69
2022/11/23 09:25:05;;;;;;;6.63;4.40;;;9.00;99.90;;;;;;5032453;28;20257;-70
2022/11/23 09:27:31;;;;;;;7.17;4.20;;;9.10;99.90;;;;;;5014961;28;20174;-69
2022/11/23 09:29:57;;;;;;;6.87;4.80;;;9.10;99.90;;;;;;5017092;28;20203;-69
2022/11/23 09:32:23;;;;;;;8.67;4.47;;;9.20;99.90;;;;;;5036103;28;20172;-69
2022/11/23 09:34:49;;;;;;;7.57;4.50;;;9.20;99.90;;;;;;5036297;28;20167;-69
2022/11/23 09:37:15;;;;;;;9.13;4.00;;;9.30;99.90;;;;;;5018364;28;20186;-69
2022/11/23 09:39:40;;;;;;;7.97;3.90;;;9.40;99.90;;;;;;5015306;28;20207;-72
2022/11/23 09:43:08;;;;;;;7.67;4.60;;;9.40;99.90;;;;;;5016685;28;20541;-71
2022/11/23 09:45:48;;;;;;;9.83;4.67;;;9.50;99.90;;;;;;4936638;29;20264;-72
2022/11/23 09:48:41;;;;;;;6.47;4.07;;;9.50;99.90;;;;;;5006917;28;20188;-69
2022/11/23 09:51:17;;;;;;;10.43;4.43;;;9.50;99.90;;;;;;5016389;28;20184;-70
2022/11/23 09:53:58;;;;;;;9.53;4.20;;;9.50;99.90;;;;;;5016274;28;20168;-70
2022/11/23 09:56:27;;;;;;;10.50;4.70;;;9.60;99.90;;;;;;4998383;28;20222;-67
2022/11/23 09:59:01;;;;;;;10.00;4.47;;;9.60;99.90;;;;;;4998427;28;20607;-67
2022/11/23 10:01:27;;;;;;;10.10;4.20;;;9.70;99.90;;;;;;5015859;28;20167;-67
2022/11/23 10:03:55;;;;;;;7.97;4.23;;;9.70;99.90;;;;;;4998128;28;20180;-67
2022/11/23 10:06:24;;;;;;;13.43;4.37;;;9.70;99.90;;;;;;4998023;28;20730;-67
2022/11/23 10:09:09;;;;;;;7.27;4.50;;;9.70;99.90;;;;;;5025372;28;20191;-67
2022/11/23 10:12:13;;;;;;;8.00;4.60;;;9.80;99.90;;;;;;5035513;28;20533;-67
2022/11/23 10:14:57;;;;;;;9.03;5.07;;;9.80;99.90;;;;;;5027891;28;20636;-67
2022/11/23 10:17:49;;;;;;;8.57;4.70;;;9.80;99.90;;;;;;5035320;28;20646;-68
2022/11/23 10:20:39;;;;;;;12.30;4.70;;;9.90;99.90;;;;;;5035507;28;20195;-68
2022/11/23 10:23:50;;;;;;;8.47;4.33;;;10.00;99.90;;;;;;5033963;28;20171;-68
2022/11/23 10:26:18;;;;;;;6.50;4.20;;;10.20;99.90;;;;;;5033944;28;20718;-67
2022/11/23 10:28:46;;;;;;;8.80;4.13;;;10.40;99.90;;;;;;5035076;28;20591;-67
2022/11/23 10:31:17;;;;;;;11.03;4.50;;;10.30;99.90;;;;;;5034941;28;20174;-68
2022/11/23 10:34:11;;;;;;;12.43;4.43;;;10.40;99.90;;;;;;5034131;28;20190;-67
2022/11/23 10:36:38;;;;;;;7.67;4.40;;;10.30;99.90;;;;;;5035413;28;20163;-68
2022/11/23 10:39:22;;;;;;;10.70;4.57;;;10.10;99.90;;;;;;5030538;28;20212;-68
2022/11/23 10:41:49;;;;;;;15.27;4.90;;;9.80;99.90;;;;;;5015467;28;20501;-69
2022/11/23 10:44:36;;;;;;;18.10;5.10;;;9.70;99.90;;;;;;5013817;28;20529;-68
2022/11/23 10:47:03;;;;;;;9.40;4.20;;;9.80;99.90;;;;;;5013764;28;20211;-68
2022/11/23 10:49:31;;;;;;;6.97;4.30;;;9.90;99.90;;;;;;5013666;28;20283;-68
2022/11/23 10:52:02;;;;;;;10.73;4.50;;;10.10;99.90;;;;;;5014985;28;20183;-68
2022/11/23 10:54:48;;;;;;;11.93;4.53;;;10.10;99.90;;;;;;5014886;28;20268;-68
2022/11/23 10:57:41;;;;;;;11.97;4.70;;;10.20;99.90;;;;;;5015148;28;20617;-68
2022/11/23 11:00:14;;;;;;;8.40;4.63;;;10.20;99.90;;;;;;5015760;28;20278;-68
2022/11/23 11:02:41;;;;;;;10.30;4.70;;;10.30;99.90;;;;;;5015210;28;20164;-68
2022/11/23 11:05:35;;;;;;;6.67;4.30;;;10.40;99.90;;;;;;5014645;28;20200;-67
2022/11/23 11:08:11;;;;;;;10.87;5.07;;;10.50;99.90;;;;;;5018089;28;20262;-68
2022/11/23 11:10:48;;;;;;;6.33;4.23;;;10.60;99.90;;;;;;5034233;28;20170;-68
2022/11/23 11:13:26;;;;;;;9.17;4.23;;;10.50;99.90;;;;;;5034633;28;20608;-67
2022/11/23 11:15:57;;;;;;;6.33;4.10;;;10.40;99.90;;;;;;5034105;28;20194;-68
2022/11/23 11:18:27;;;;;;;7.53;4.23;;;10.60;99.90;;;;;;5034187;28;20178;-68
2022/11/23 11:21:03;;;;;;;9.30;4.10;;;10.50;99.90;;;;;;5016471;28;20179;-68
2022/11/23 11:23:30;;;;;;;8.57;4.10;;;10.70;99.90;;;;;;5034278;28;20678;-68
2022/11/23 11:26:18;;;;;;;11.63;4.73;;;10.80;99.90;;;;;;5034072;28;20190;-68
2022/11/23 11:28:48;;;;;;;8.83;3.93;;;11.00;99.90;;;;;;5016803;28;20199;-68
2022/11/23 11:32:05;;;;;;;8.65;4.10;;;11.30;99.90;;;;;;5016303;28;20172;-67
2022/11/23 11:35:04;;;;;;;7.90;4.30;;;11.20;99.90;;;;;;5011061;28;20187;-68
2022/11/23 11:37:45;;;;;;;9.27;4.40;;;11.20;99.90;;;;;;5034420;28;20168;-68
2022/11/23 11:40:34;;;;;;;9.70;4.20;;;11.30;99.90;;;;;;5014096;28;20184;-68
2022/11/23 11:43:31;;;;;;;6.97;4.30;;;10.90;99.90;;;;;;5014872;28;20152;-68
2022/11/23 11:46:01;;;;;;;6.30;4.10;;;11.00;99.90;;;;;;5014262;28;20192;-68
2022/11/23 11:48:45;;;;;;;15.63;4.83;;;11.00;99.90;;;;;;5014231;28;20282;-68
2022/11/23 11:51:26;;;;;;;9.50;4.40;;;10.90;99.90;;;;;;5014230;28;20199;-68
2022/11/23 11:53:52;;;;;;;8.80;4.50;;;11.10;99.90;;;;;;5014215;28;20159;-68
2022/11/23 11:56:35;;;;;;;6.73;4.37;;;11.00;99.90;;;;;;5013793;28;20176;-67
2022/11/23 11:59:43;;;;;;;9.80;4.17;;;11.10;99.90;;;;;;5014023;28;20657;-68
2022/11/23 12:02:25;;;;;;;8.77;4.33;;;11.30;99.90;;;;;;5013683;28;20246;-68
2022/11/23 12:05:19;;;;;;;9.77;4.40;;;11.30;99.90;;;;;;5014054;28;20182;-68
2022/11/23 12:08:10;;;;;;;9.90;4.20;;;11.50;99.90;;;;;;5014537;28;20172;-68
2022/11/23 12:10:45;;;;;;;8.93;4.38;;;11.40;99.90;;;;;;5015568;28;20167;-68
2022/11/23 12:13:15;;;;;;;9.47;4.50;;;11.50;99.90;;;;;;5033466;28;20167;-68
2022/11/23 12:15:46;;;;;;;11.30;4.35;;;11.50;99.90;;;;;;5033612;28;20187;-68
2022/11/23 12:18:33;;;;;;;10.98;4.43;;;11.50;99.90;;;;;;5033827;28;20159;-68
2022/11/23 12:21:09;;;;;;;8.47;4.83;;;11.60;99.90;;;;;;5033879;28;20233;-67
2022/11/23 12:24:09;;;;;;;9.23;4.30;;;11.40;99.90;;;;;;5033392;28;20629;-67
2022/11/23 12:27:07;;;;;;;9.02;4.90;;;11.40;99.90;;;;;;5033209;28;20191;-67
2022/11/23 12:29:59;;;;;;;8.53;4.13;;;11.50;99.90;;;;;;5019305;28;20756;-66
2022/11/23 12:32:46;;;;;;;9.60;4.50;;;11.20;99.90;;;;;;5033534;28;20570;-67
2022/11/23 12:35:49;;;;;;;11.27;5.43;;;11.00;99.90;;;;;;5033148;28;20246;-66
2022/11/23 12:38:49;;;;;;;6.63;4.00;;;10.80;99.90;;;;;;5011951;28;20191;-67
2022/11/23 12:41:39;;;;;;;8.97;4.10;;;10.50;99.90;;;;;;5013370;28;20629;-66
2022/11/23 12:44:26;;;;;;;7.53;4.50;;;10.20;99.90;;;;;;5013897;28;20164;-66
2022/11/23 12:47:09;;;;;;;10.93;4.27;;;10.00;99.90;;;;;;4995611;28;20199;-66
2022/11/23 12:49:52;;;;;;;7.33;4.43;;;9.80;99.90;;;;;;5013754;28;20258;-66
2022/11/23 12:52:55;;;;;;;10.47;4.40;;;9.70;99.90;;;;;;5013277;28;20629;-66
2022/11/23 12:55:34;;;;;;;6.80;4.57;;;9.70;99.90;;;;;;5013193;28;20192;-67
2022/11/23 12:58:20;;;;;;;7.13;3.97;;;9.70;99.90;;;;;;4995613;28;20176;-67
2022/11/23 13:01:01;;;;;;;8.23;4.60;;;9.80;99.90;;;;;;4995160;28;20191;-67
2022/11/23 13:03:48;;;;;;;7.77;4.13;;;9.90;99.90;;;;;;5013417;28;20570;-67
2022/11/23 13:06:47;;;;;;;8.03;4.60;;;10.00;99.90;;;;;;5000042;28;20559;-69
2022/11/23 13:09:42;;;;;;;11.17;5.07;;;10.10;99.90;;;;;;5029411;28;20210;-67